sensor_id;sensor_type;location;lat;lon;timestamp;pressure;altitude;pressure_sealevel;temperature;humidity
74637;BME280;63141;54.616;39.754;2022-09-21T00:01:29;100144.44;;;17.95;59.15
74637;BME280;63141;54.616;39.754;2022-09-21T00:04:35;100152.34;;;17.95;59.09
74637;BME280;63141;54.616;39.754;2022-09-21T00:07:36;100151.47;;;17.95;58.99
74637;BME280;63141;54.616;39.754;2022-09-21T00:10:38;100151.47;;;17.95;58.87
74637;BME280;63141;54.616;39.754;2022-09-21T00:13:40;100153.22;;;17.96;58.88
74637;BME280;63141;54.616;39.754;2022-09-21T00:16:43;100155.88;;;17.94;58.83
74637;BME280;63141;54.616;39.754;2022-09-21T00:19:45;100155.03;;;17.94;58.81
74637;BME280;63141;54.616;39.754;2022-09-21T00:22:47;100155.88;;;17.94;58.83
74637;BME280;63141;54.616;39.754;2022-09-21T00:25:48;100148.00;;;17.94;58.76
74637;BME280;63141;54.616;39.754;2022-09-21T00:28:57;100140.09;;;17.94;58.79
74637;BME280;63141;54.616;39.754;2022-09-21T00:31:59;100131.34;;;17.92;58.77
74637;BME280;63141;54.616;39.754;2022-09-21T00:35:01;100134.81;;;17.94;58.72
74637;BME280;63141;54.616;39.754;2022-09-21T00:38:03;100130.44;;;17.93;58.90
74637;BME280;63141;54.616;39.754;2022-09-21T00:41:06;100139.22;;;17.94;58.74
74637;BME280;63141;54.616;39.754;2022-09-21T00:44:19;100134.81;;;17.94;58.74
74637;BME280;63141;54.616;39.754;2022-09-21T00:47:43;100133.94;;;17.94;58.64
74637;BME280;63141;54.616;39.754;2022-09-21T00:50:49;100132.19;;;17.93;58.73
74637;BME280;63141;54.616;39.754;2022-09-21T00:54:00;100131.34;;;17.92;58.65
74637;BME280;63141;54.616;39.754;2022-09-21T00:57:02;100126.06;;;17.92;58.57
74637;BME280;63141;54.616;39.754;2022-09-21T01:00:07;100120.81;;;17.92;58.44
74637;BME280;63141;54.616;39.754;2022-09-21T01:03:11;100115.53;;;17.92;58.66
74637;BME280;63141;54.616;39.754;2022-09-21T01:06:18;100119.94;;;17.92;58.44
74637;BME280;63141;54.616;39.754;2022-09-21T01:09:20;100123.44;;;17.92;58.46
74637;BME280;63141;54.616;39.754;2022-09-21T01:15:56;100127.78;;;17.93;58.50
74637;BME280;63141;54.616;39.754;2022-09-21T01:35:22;100131.34;;;17.92;58.32
74637;BME280;63141;54.616;39.754;2022-09-21T01:38:31;100119.09;;;17.91;58.32
74637;BME280;63141;54.616;39.754;2022-09-21T01:41:36;100133.97;;;17.92;58.21
74637;BME280;63141;54.616;39.754;2022-09-21T01:44:41;100128.72;;;17.91;58.21
74637;BME280;63141;54.616;39.754;2022-09-21T01:47:46;100124.34;;;17.91;58.18
74637;BME280;63141;54.616;39.754;2022-09-21T01:50:58;100121.75;;;17.90;58.22
74637;BME280;63141;54.616;39.754;2022-09-21T01:54:06;100126.09;;;17.91;58.18
74637;BME280;63141;54.616;39.754;2022-09-21T01:57:15;100127.00;;;17.90;58.08
74637;BME280;63141;54.616;39.754;2022-09-21T02:00:23;100133.13;;;17.90;58.38
74637;BME280;63141;54.616;39.754;2022-09-21T02:03:39;100131.38;;;17.91;58.16
74637;BME280;63141;54.616;39.754;2022-09-21T02:06:45;100117.31;;;17.90;58.24
74637;BME280;63141;54.616;39.754;2022-09-21T02:09:47;100117.31;;;17.90;58.22
74637;BME280;63141;54.616;39.754;2022-09-21T02:12:52;100116.47;;;17.90;58.08
74637;BME280;63141;54.616;39.754;2022-09-21T02:19:42;100122.59;;;17.90;57.96
74637;BME280;63141;54.616;39.754;2022-09-21T02:26:03;100127.88;;;17.90;58.09
74637;BME280;63141;54.616;39.754;2022-09-21T02:36:27;100116.47;;;17.90;57.92
74637;BME280;63141;54.616;39.754;2022-09-21T02:39:40;100110.34;;;17.89;58.04
74637;BME280;63141;54.616;39.754;2022-09-21T02:42:43;100114.72;;;17.89;57.96
74637;BME280;63141;54.616;39.754;2022-09-21T02:45:57;100116.50;;;17.88;58.03
74637;BME280;63141;54.616;39.754;2022-09-21T02:49:03;100110.34;;;17.89;57.94
74637;BME280;63141;54.616;39.754;2022-09-21T02:52:14;100119.97;;;17.90;57.87
74637;BME280;63141;54.616;39.754;2022-09-21T02:55:17;100116.50;;;17.88;57.90
74637;BME280;63141;54.616;39.754;2022-09-21T02:58:19;100114.72;;;17.89;57.92
74637;BME280;63141;54.616;39.754;2022-09-21T03:01:23;100117.34;;;17.89;57.93
74637;BME280;63141;54.616;39.754;2022-09-21T03:04:30;100107.72;;;17.88;57.80
74637;BME280;63141;54.616;39.754;2022-09-21T03:07:32;100099.81;;;17.89;57.82
74637;BME280;63141;54.616;39.754;2022-09-21T03:10:33;100108.59;;;17.88;57.63
74637;BME280;63141;54.616;39.754;2022-09-21T03:13:39;100112.13;;;17.87;57.81
74637;BME280;63141;54.616;39.754;2022-09-21T03:16:41;100110.34;;;17.89;57.64
74637;BME280;63141;54.616;39.754;2022-09-21T03:19:42;100112.13;;;17.87;57.75
74637;BME280;63141;54.616;39.754;2022-09-21T03:22:43;100113.84;;;17.88;57.79
74637;BME280;63141;54.616;39.754;2022-09-21T03:25:45;100107.72;;;17.88;57.79
74637;BME280;63141;54.616;39.754;2022-09-21T03:28:48;100112.13;;;17.87;57.75
74637;BME280;63141;54.616;39.754;2022-09-21T03:31:50;100106.00;;;17.87;57.63
74637;BME280;63141;54.616;39.754;2022-09-21T03:34:54;100101.59;;;17.87;57.68
74637;BME280;63141;54.616;39.754;2022-09-21T03:37:55;100104.25;;;17.87;57.65
74637;BME280;63141;54.616;39.754;2022-09-21T03:40:58;100097.19;;;17.88;57.82
74637;BME280;63141;54.616;39.754;2022-09-21T03:43:59;100093.69;;;17.87;57.54
74637;BME280;63141;54.616;39.754;2022-09-21T03:47:00;100091.06;;;17.87;57.58
74637;BME280;63141;54.616;39.754;2022-09-21T03:50:02;100091.06;;;17.87;57.50
74637;BME280;63141;54.616;39.754;2022-09-21T03:53:04;100088.44;;;17.87;57.66
74637;BME280;63141;54.616;39.754;2022-09-21T03:56:05;100091.06;;;17.87;57.56
74637;BME280;63141;54.616;39.754;2022-09-21T03:59:07;100091.06;;;17.87;57.49
74637;BME280;63141;54.616;39.754;2022-09-21T04:02:08;100092.84;;;17.87;57.57
74637;BME280;63141;54.616;39.754;2022-09-21T04:05:15;100094.53;;;17.89;57.43
74637;BME280;63141;54.616;39.754;2022-09-21T04:08:17;100098.97;;;17.87;57.38
74637;BME280;63141;54.616;39.754;2022-09-21T04:11:18;100102.47;;;17.88;57.48
74637;BME280;63141;54.616;39.754;2022-09-21T04:14:23;100099.00;;;17.86;57.38
74637;BME280;63141;54.616;39.754;2022-09-21T04:17:25;100091.06;;;17.87;57.41
74637;BME280;63141;54.616;39.754;2022-09-21T04:20:26;100099.81;;;17.89;57.52
74637;BME280;63141;54.616;39.754;2022-09-21T04:23:27;100109.50;;;17.87;57.50
74637;BME280;63141;54.616;39.754;2022-09-21T04:26:31;100107.72;;;17.88;57.38
74637;BME280;63141;54.616;39.754;2022-09-21T04:29:33;100117.41;;;17.87;57.52
74637;BME280;63141;54.616;39.754;2022-09-21T04:32:35;100117.41;;;17.87;57.50
74637;BME280;63141;54.616;39.754;2022-09-21T04:35:36;100118.28;;;17.88;57.48
74637;BME280;63141;54.616;39.754;2022-09-21T04:38:39;100113.84;;;17.88;57.52
74637;BME280;63141;54.616;39.754;2022-09-21T04:41:40;100111.22;;;17.88;57.46
74637;BME280;63141;54.616;39.754;2022-09-21T04:44:42;100105.09;;;17.88;57.38
74637;BME280;63141;54.616;39.754;2022-09-21T04:47:43;100101.59;;;17.87;57.79
74637;BME280;63141;54.616;39.754;2022-09-21T04:50:48;100091.06;;;17.87;57.39
74637;BME280;63141;54.616;39.754;2022-09-21T04:53:50;100093.69;;;17.87;57.64
74637;BME280;63141;54.616;39.754;2022-09-21T04:56:51;100097.19;;;17.88;57.53
74637;BME280;63141;54.616;39.754;2022-09-21T04:59:53;100092.84;;;17.87;57.38
74637;BME280;63141;54.616;39.754;2022-09-21T05:02:55;100097.22;;;17.86;57.49
74637;BME280;63141;54.616;39.754;2022-09-21T05:06:02;100100.69;;;17.88;57.35
74637;BME280;63141;54.616;39.754;2022-09-21T05:09:04;100096.34;;;17.87;57.38
74637;BME280;63141;54.616;39.754;2022-09-21T05:12:23;100101.59;;;17.87;57.44
74637;BME280;63141;54.616;39.754;2022-09-21T05:15:25;100113.03;;;17.86;57.46
74637;BME280;63141;54.616;39.754;2022-09-21T05:18:26;100114.78;;;17.87;57.34
74637;BME280;63141;54.616;39.754;2022-09-21T05:21:28;100119.13;;;17.88;57.29
74637;BME280;63141;54.616;39.754;2022-09-21T05:24:31;100114.78;;;17.87;57.50
74637;BME280;63141;54.616;39.754;2022-09-21T05:27:32;100113.00;;;17.88;57.37
74637;BME280;63141;54.616;39.754;2022-09-21T05:30:34;100112.13;;;17.87;57.36
74637;BME280;63141;54.616;39.754;2022-09-21T05:33:36;100111.22;;;17.88;57.37
74637;BME280;63141;54.616;39.754;2022-09-21T05:40:09;100107.72;;;17.88;57.48
74637;BME280;63141;54.616;39.754;2022-09-21T05:43:12;100101.59;;;17.87;57.34
74637;BME280;63141;54.616;39.754;2022-09-21T05:46:23;100101.59;;;17.87;57.46
74637;BME280;63141;54.616;39.754;2022-09-21T05:53:39;100115.56;;;17.91;57.46
74637;BME280;63141;54.616;39.754;2022-09-21T05:57:07;100114.69;;;17.90;57.32
74637;BME280;63141;54.616;39.754;2022-09-21T06:00:16;100118.25;;;17.89;57.32
74637;BME280;63141;54.616;39.754;2022-09-21T06:03:28;100120.88;;;17.89;57.72
74637;BME280;63141;54.616;39.754;2022-09-21T06:06:30;100125.22;;;17.90;57.48
74637;BME280;63141;54.616;39.754;2022-09-21T06:09:31;100115.63;;;17.89;57.51
74637;BME280;63141;54.616;39.754;2022-09-21T06:12:33;100118.28;;;17.88;57.50
74637;BME280;63141;54.616;39.754;2022-09-21T06:15:35;100118.19;;;17.91;57.56
74637;BME280;63141;54.616;39.754;2022-09-21T06:18:39;100116.47;;;17.90;57.47
74637;BME280;63141;54.616;39.754;2022-09-21T06:21:41;100111.19;;;17.90;57.55
74637;BME280;63141;54.616;39.754;2022-09-21T06:24:42;100119.09;;;17.90;57.54
74637;BME280;63141;54.616;39.754;2022-09-21T06:27:44;100112.06;;;17.90;57.64
74637;BME280;63141;54.616;39.754;2022-09-21T06:30:53;100114.69;;;17.90;57.74
74637;BME280;63141;54.616;39.754;2022-09-21T06:33:55;100117.31;;;17.90;57.31
74637;BME280;63141;54.616;39.754;2022-09-21T06:36:56;100106.78;;;17.90;57.88
74637;BME280;63141;54.616;39.754;2022-09-21T06:39:58;100106.78;;;17.90;57.71
74637;BME280;63141;54.616;39.754;2022-09-21T06:43:01;100113.81;;;17.91;57.69
74637;BME280;63141;54.616;39.754;2022-09-21T06:46:03;100113.84;;;17.90;57.81
74637;BME280;63141;54.616;39.754;2022-09-21T06:49:04;100119.97;;;17.90;57.73
74637;BME280;63141;54.616;39.754;2022-09-21T06:52:06;100114.69;;;17.90;58.09
74637;BME280;63141;54.616;39.754;2022-09-21T06:55:07;100109.44;;;17.90;57.88
74637;BME280;63141;54.616;39.754;2022-09-21T06:58:10;100113.81;;;17.91;57.95
74637;BME280;63141;54.616;39.754;2022-09-21T07:01:14;100114.69;;;17.90;58.18
74637;BME280;63141;54.616;39.754;2022-09-21T07:04:16;100110.34;;;17.89;58.24
74637;BME280;63141;54.616;39.754;2022-09-21T07:07:21;100106.78;;;17.90;58.26
74637;BME280;63141;54.616;39.754;2022-09-21T07:10:22;100101.53;;;17.90;58.64
74637;BME280;63141;54.616;39.754;2022-09-21T07:13:25;100101.53;;;17.90;58.61
74637;BME280;63141;54.616;39.754;2022-09-21T07:16:26;100103.28;;;17.91;58.53
74637;BME280;63141;54.616;39.754;2022-09-21T07:19:28;100098.03;;;17.90;58.56
74637;BME280;63141;54.616;39.754;2022-09-21T07:22:30;100098.00;;;17.91;58.64
74637;BME280;63141;54.616;39.754;2022-09-21T07:25:32;100097.13;;;17.91;58.79
74637;BME280;63141;54.616;39.754;2022-09-21T07:28:35;100095.38;;;17.91;58.91
74637;BME280;63141;54.616;39.754;2022-09-21T07:31:36;100094.44;;;17.92;59.03
74637;BME280;63141;54.616;39.754;2022-09-21T07:34:38;100091.81;;;17.92;59.03
74637;BME280;63141;54.616;39.754;2022-09-21T07:37:39;100094.44;;;17.92;59.11
74637;BME280;63141;54.616;39.754;2022-09-21T07:40:40;100086.53;;;17.92;59.06
74637;BME280;63141;54.616;39.754;2022-09-21T07:43:42;100083.91;;;17.92;59.25
74637;BME280;63141;54.616;39.754;2022-09-21T07:46:43;100077.78;;;17.92;59.25
74637;BME280;63141;54.616;39.754;2022-09-21T07:49:46;100079.50;;;17.93;59.11
74637;BME280;63141;54.616;39.754;2022-09-21T07:52:48;100081.28;;;17.92;59.35
74637;BME280;63141;54.616;39.754;2022-09-21T07:55:49;100092.66;;;17.94;59.45
74637;BME280;63141;54.616;39.754;2022-09-21T07:58:51;100085.59;;;17.95;59.45
74637;BME280;63141;54.616;39.754;2022-09-21T08:02:10;100082.97;;;17.95;59.40
74637;BME280;63141;54.616;39.754;2022-09-21T08:05:11;100079.47;;;17.94;59.36
74637;BME280;63141;54.616;39.754;2022-09-21T08:08:15;100079.47;;;17.94;59.25
74637;BME280;63141;54.616;39.754;2022-09-21T08:11:18;100082.09;;;17.94;59.16
74637;BME280;63141;54.616;39.754;2022-09-21T08:14:21;100079.47;;;17.94;59.29
74637;BME280;63141;54.616;39.754;2022-09-21T08:17:23;100082.09;;;17.94;59.18
74637;BME280;63141;54.616;39.754;2022-09-21T08:20:24;100082.09;;;17.94;59.26
74637;BME280;63141;54.616;39.754;2022-09-21T08:23:26;100085.63;;;17.93;59.16
74637;BME280;63141;54.616;39.754;2022-09-21T08:26:29;100075.97;;;17.94;59.11
74637;BME280;63141;54.616;39.754;2022-09-21T08:29:30;100076.84;;;17.94;58.90
74637;BME280;63141;54.616;39.754;2022-09-21T08:32:32;100069.81;;;17.93;59.04
74637;BME280;63141;54.616;39.754;2022-09-21T08:35:34;100069.81;;;17.93;59.18
74637;BME280;63141;54.616;39.754;2022-09-21T08:38:37;100065.44;;;17.94;59.13
74637;BME280;63141;54.616;39.754;2022-09-21T08:45:17;100054.00;;;17.93;58.99
74637;BME280;63141;54.616;39.754;2022-09-21T08:48:23;100051.38;;;17.93;58.96
74637;BME280;63141;54.616;39.754;2022-09-21T08:51:30;100047.88;;;17.93;58.96
74637;BME280;63141;54.616;39.754;2022-09-21T08:54:46;100046.09;;;17.93;59.14
74637;BME280;63141;54.616;39.754;2022-09-21T08:57:49;100047.03;;;17.92;58.94
74637;BME280;63141;54.616;39.754;2022-09-21T09:01:05;100049.63;;;17.94;58.99
74637;BME280;63141;54.616;39.754;2022-09-21T09:04:38;100050.50;;;17.94;59.06
74637;BME280;63141;54.616;39.754;2022-09-21T09:11:36;100046.09;;;17.93;59.18
74637;BME280;63141;54.616;39.754;2022-09-21T09:21:28;100047.03;;;17.92;58.85
74637;BME280;63141;54.616;39.754;2022-09-21T09:24:39;100049.66;;;17.92;58.84
74637;BME280;63141;54.616;39.754;2022-09-21T09:27:43;100054.00;;;17.93;59.12
74637;BME280;63141;54.616;39.754;2022-09-21T09:30:48;100047.88;;;17.93;58.79
74637;BME280;63141;54.616;39.754;2022-09-21T09:33:59;100043.47;;;17.93;58.90
74637;BME280;63141;54.616;39.754;2022-09-21T09:37:14;100041.72;;;17.94;58.92
74637;BME280;63141;54.616;39.754;2022-09-21T09:40:47;100032.94;;;17.93;58.84
74637;BME280;63141;54.616;39.754;2022-09-21T09:43:47;100036.47;;;17.92;58.85
74637;BME280;63141;54.616;39.754;2022-09-21T09:53:25;100024.16;;;17.93;59.21
74637;BME280;63141;54.616;39.754;2022-09-21T09:56:27;100032.94;;;17.93;58.98
74637;BME280;63141;54.616;39.754;2022-09-21T09:59:39;100024.13;;;17.94;59.05
74637;BME280;63141;54.616;39.754;2022-09-21T10:02:57;100025.00;;;17.95;58.87
74637;BME280;63141;54.616;39.754;2022-09-21T10:05:59;100022.38;;;17.95;58.95
74637;BME280;63141;54.616;39.754;2022-09-21T10:09:26;100022.16;;;18.03;58.60
74637;BME280;63141;54.616;39.754;2022-09-21T10:12:28;100024.66;;;18.09;58.58
74637;BME280;63141;54.616;39.754;2022-09-21T10:15:31;100023.59;;;18.16;58.52
74637;BME280;63141;54.616;39.754;2022-09-21T10:21:57;100022.97;;;18.40;59.62
74637;BME280;63141;54.616;39.754;2022-09-21T10:25:00;100021.00;;;18.49;59.91
74637;BME280;63141;54.616;39.754;2022-09-21T10:28:06;100026.88;;;18.60;59.89
74637;BME280;63141;54.616;39.754;2022-09-21T10:31:20;100018.75;;;18.68;60.12
74637;BME280;63141;54.616;39.754;2022-09-21T10:34:25;100015.06;;;18.73;60.29
74637;BME280;63141;54.616;39.754;2022-09-21T10:40:35;100014.75;;;18.86;60.28
74637;BME280;63141;54.616;39.754;2022-09-21T10:43:40;100011.09;;;18.90;60.36
74637;BME280;63141;54.616;39.754;2022-09-21T10:46:46;100004.91;;;18.92;60.05
74637;BME280;63141;54.616;39.754;2022-09-21T10:49:54;100002.19;;;18.94;60.48
74637;BME280;63141;54.616;39.754;2022-09-21T10:56:18;100007.31;;;19.00;60.35
74637;BME280;63141;54.616;39.754;2022-09-21T10:59:31;100001.06;;;19.02;60.00
74637;BME280;63141;54.616;39.754;2022-09-21T11:02:36;100005.34;;;19.07;60.39
74637;BME280;63141;54.616;39.754;2022-09-21T11:05:40;100005.31;;;19.08;60.37
74637;BME280;63141;54.616;39.754;2022-09-21T11:16:00;99987.47;;;19.16;60.41
74637;BME280;63141;54.616;39.754;2022-09-21T11:29:32;99969.53;;;19.28;60.19
74637;BME280;63141;54.616;39.754;2022-09-21T11:39:47;99957.03;;;19.33;60.10
74637;BME280;63141;54.616;39.754;2022-09-21T11:46:19;99949.94;;;19.35;60.34
74637;BME280;63141;54.616;39.754;2022-09-21T11:56:55;99938.31;;;19.40;60.21
74637;BME280;63141;54.616;39.754;2022-09-21T12:10:23;99946.09;;;19.45;60.08
74637;BME280;63141;54.616;39.754;2022-09-21T12:13:32;99945.13;;;19.48;60.18
74637;BME280;63141;54.616;39.754;2022-09-21T12:20:03;99938.88;;;19.50;60.27
74637;BME280;63141;54.616;39.754;2022-09-21T12:23:19;99937.06;;;19.52;60.08
74637;BME280;63141;54.616;39.754;2022-09-21T12:26:26;99933.50;;;19.53;59.96
74637;BME280;63141;54.616;39.754;2022-09-21T12:29:36;99931.66;;;19.55;60.02
74637;BME280;63141;54.616;39.754;2022-09-21T12:35:59;99936.91;;;19.57;60.04
74637;BME280;63141;54.616;39.754;2022-09-21T12:39:24;99943.88;;;19.59;59.91
74637;BME280;63141;54.616;39.754;2022-09-21T12:42:37;99937.66;;;19.60;59.78
74637;BME280;63141;54.616;39.754;2022-09-21T12:45:44;99947.34;;;19.61;59.59
74637;BME280;63141;54.616;39.754;2022-09-21T12:48:48;99949.97;;;19.61;59.76
74637;BME280;63141;54.616;39.754;2022-09-21T12:51:53;99941.97;;;19.63;59.80
74637;BME280;63141;54.616;39.754;2022-09-21T12:58:33;99936.66;;;19.64;59.59
74637;BME280;63141;54.616;39.754;2022-09-21T13:02:17;99936.63;;;19.66;59.59
74637;BME280;63141;54.616;39.754;2022-09-21T13:08:38;99936.53;;;19.67;59.63
74637;BME280;63141;54.616;39.754;2022-09-21T13:11:52;99937.44;;;19.68;59.55
74637;BME280;63141;54.616;39.754;2022-09-21T13:15:20;99933.84;;;19.71;59.58
74637;BME280;63141;54.616;39.754;2022-09-21T13:18:38;99930.34;;;19.70;59.36
74637;BME280;63141;54.616;39.754;2022-09-21T13:21:39;99925.06;;;19.70;59.53
74637;BME280;63141;54.616;39.754;2022-09-21T13:24:42;99927.63;;;19.72;59.37
74637;BME280;63141;54.616;39.754;2022-09-21T13:28:02;99931.94;;;19.74;59.21
74637;BME280;63141;54.616;39.754;2022-09-21T13:46:57;99924.81;;;19.78;58.90
74637;BME280;63141;54.616;39.754;2022-09-21T13:50:12;99935.34;;;19.79;59.14
74637;BME280;63141;54.616;39.754;2022-09-21T13:53:21;99931.81;;;19.79;58.94
74637;BME280;63141;54.616;39.754;2022-09-21T13:56:25;99936.19;;;19.80;58.78
74637;BME280;63141;54.616;39.754;2022-09-21T13:59:26;99944.97;;;19.80;58.84
74637;BME280;63141;54.616;39.754;2022-09-21T14:02:40;99950.22;;;19.82;59.01
74637;BME280;63141;54.616;39.754;2022-09-21T14:05:45;99944.94;;;19.82;58.68
74637;BME280;63141;54.616;39.754;2022-09-21T14:08:55;99946.66;;;19.83;58.86
74637;BME280;63141;54.616;39.754;2022-09-21T14:12:06;99951.94;;;19.83;58.98
74637;BME280;63141;54.616;39.754;2022-09-21T14:18:18;99946.66;;;19.83;58.70
74637;BME280;63141;54.616;39.754;2022-09-21T14:21:20;99944.81;;;19.85;58.61
74637;BME280;63141;54.616;39.754;2022-09-21T14:24:39;99948.31;;;19.85;58.44
74637;BME280;63141;54.616;39.754;2022-09-21T14:27:43;99945.63;;;19.87;58.54
74637;BME280;63141;54.616;39.754;2022-09-21T14:30:54;99946.50;;;19.87;58.31
74637;BME280;63141;54.616;39.754;2022-09-21T14:33:59;99950.88;;;19.88;58.62
74637;BME280;63141;54.616;39.754;2022-09-21T14:37:08;99957.03;;;19.89;58.48
74637;BME280;63141;54.616;39.754;2022-09-21T14:40:29;99955.19;;;19.91;58.26
74637;BME280;63141;54.616;39.754;2022-09-21T14:43:35;99950.78;;;19.92;58.62
74637;BME280;63141;54.616;39.754;2022-09-21T15:00:24;99970.03;;;19.95;58.28
74637;BME280;63141;54.616;39.754;2022-09-21T15:10:47;99969.97;;;19.97;57.98
74637;BME280;63141;54.616;39.754;2022-09-21T15:17:27;99975.22;;;19.98;58.01
74637;BME280;63141;54.616;39.754;2022-09-21T15:20:30;99984.03;;;19.97;57.96
74637;BME280;63141;54.616;39.754;2022-09-21T15:23:39;99980.50;;;19.98;57.91
74637;BME280;63141;54.616;39.754;2022-09-21T15:26:40;99988.44;;;19.98;57.96
74637;BME280;63141;54.616;39.754;2022-09-21T15:29:46;99986.66;;;19.99;57.93
74637;BME280;63141;54.616;39.754;2022-09-21T15:32:57;99986.59;;;20.00;57.58
74637;BME280;63141;54.616;39.754;2022-09-21T15:36:00;99991.03;;;20.00;58.06
74637;BME280;63141;54.616;39.754;2022-09-21T15:39:03;99989.25;;;20.00;57.83
74637;BME280;63141;54.616;39.754;2022-09-21T15:42:15;99990.97;;;20.01;57.65
74637;BME280;63141;54.616;39.754;2022-09-21T15:45:18;99983.97;;;20.00;57.68
74637;BME280;63141;54.616;39.754;2022-09-21T15:48:40;99997.09;;;20.02;57.57
74637;BME280;63141;54.616;39.754;2022-09-21T15:51:42;99993.59;;;20.01;57.73
74637;BME280;63141;54.616;39.754;2022-09-21T15:54:48;99994.44;;;20.03;57.89
74637;BME280;63141;54.616;39.754;2022-09-21T15:57:55;99998.00;;;20.02;57.95
74637;BME280;63141;54.616;39.754;2022-09-21T16:00:57;99989.97;;;20.05;58.48
74637;BME280;63141;54.616;39.754;2022-09-21T16:04:05;99998.59;;;20.11;59.47
74637;BME280;63141;54.616;39.754;2022-09-21T16:07:31;99994.00;;;20.16;61.27
74637;BME280;63141;54.616;39.754;2022-09-21T16:10:36;100003.56;;;20.20;61.87
74637;BME280;63141;54.616;39.754;2022-09-21T16:13:38;100009.63;;;20.23;62.86
74637;BME280;63141;54.616;39.754;2022-09-21T16:20:18;99992.66;;;20.29;65.05
74637;BME280;63141;54.616;39.754;2022-09-21T16:23:21;100001.41;;;20.31;65.67
74637;BME280;63141;54.616;39.754;2022-09-21T16:26:34;99997.75;;;20.35;67.12
74637;BME280;63141;54.616;39.754;2022-09-21T16:29:42;99997.63;;;20.38;67.79
74637;BME280;63141;54.616;39.754;2022-09-21T16:32:44;99995.94;;;20.37;68.12
74637;BME280;63141;54.616;39.754;2022-09-21T16:35:47;99997.75;;;20.35;68.79
74637;BME280;63141;54.616;39.754;2022-09-21T16:38:48;99994.31;;;20.33;68.60
74637;BME280;63141;54.616;39.754;2022-09-21T16:41:53;99995.22;;;20.32;68.48
74637;BME280;63141;54.616;39.754;2022-09-21T16:44:56;99991.78;;;20.30;68.20
74637;BME280;63141;54.616;39.754;2022-09-21T16:47:58;99982.09;;;20.29;68.14
74637;BME280;63141;54.616;39.754;2022-09-21T16:50:59;99975.09;;;20.28;67.74
74637;BME280;63141;54.616;39.754;2022-09-21T16:54:01;99981.25;;;20.28;67.83
74637;BME280;63141;54.616;39.754;2022-09-21T16:57:05;99985.66;;;20.28;67.61
74637;BME280;63141;54.616;39.754;2022-09-21T17:00:19;99986.53;;;20.28;67.31
74637;BME280;63141;54.616;39.754;2022-09-21T17:03:25;99986.53;;;20.28;67.06
74637;BME280;63141;54.616;39.754;2022-09-21T17:06:29;99990.97;;;20.28;66.64
74637;BME280;63141;54.616;39.754;2022-09-21T17:09:36;99993.59;;;20.28;66.58
74637;BME280;63141;54.616;39.754;2022-09-21T17:12:38;99990.97;;;20.28;66.33
74637;BME280;63141;54.616;39.754;2022-09-21T17:15:43;99987.38;;;20.29;66.24
74637;BME280;63141;54.616;39.754;2022-09-21T17:18:47;99990.97;;;20.28;65.64
74637;BME280;63141;54.616;39.754;2022-09-21T17:21:49;99995.38;;;20.27;65.79
74637;BME280;63141;54.616;39.754;2022-09-21T17:24:50;99996.25;;;20.28;65.39
74637;BME280;63141;54.616;39.754;2022-09-21T17:27:55;100001.53;;;20.28;65.48
74637;BME280;63141;54.616;39.754;2022-09-21T17:31:02;100007.69;;;20.28;65.22
74637;BME280;63141;54.616;39.754;2022-09-21T17:34:08;99999.72;;;20.30;64.93
74637;BME280;63141;54.616;39.754;2022-09-21T17:37:10;100001.53;;;20.28;64.76
74637;BME280;63141;54.616;39.754;2022-09-21T17:40:12;100003.22;;;20.30;64.63
74637;BME280;63141;54.616;39.754;2022-09-21T17:50:13;99994.41;;;20.30;63.91
74637;BME280;63141;54.616;39.754;2022-09-21T17:53:15;99993.47;;;20.31;64.17
74637;BME280;63141;54.616;39.754;2022-09-21T17:59:42;99990.84;;;20.31;63.68
74637;BME280;63141;54.616;39.754;2022-09-21T18:02:51;99996.13;;;20.31;63.66
74637;BME280;63141;54.616;39.754;2022-09-21T18:05:55;100001.41;;;20.31;63.53
74637;BME280;63141;54.616;39.754;2022-09-21T18:09:01;100003.16;;;20.32;63.23
74637;BME280;63141;54.616;39.754;2022-09-21T18:25:32;99996.94;;;20.33;63.01
74637;BME280;63141;54.616;39.754;2022-09-21T18:28:43;99989.88;;;20.34;62.90
74637;BME280;63141;54.616;39.754;2022-09-21T18:35:41;99983.72;;;20.33;62.60
74637;BME280;63141;54.616;39.754;2022-09-21T18:39:05;99989.00;;;20.33;62.58
74637;BME280;63141;54.616;39.754;2022-09-21T18:42:32;99993.41;;;20.34;62.21
74637;BME280;63141;54.616;39.754;2022-09-21T18:45:52;99978.44;;;20.33;62.14
74637;BME280;63141;54.616;39.754;2022-09-21T18:55:27;99980.19;;;20.34;62.13
74637;BME280;63141;54.616;39.754;2022-09-21T18:58:29;99990.75;;;20.34;61.80
74637;BME280;63141;54.616;39.754;2022-09-21T19:01:33;99986.25;;;20.36;61.44
74637;BME280;63141;54.616;39.754;2022-09-21T19:04:35;99986.25;;;20.36;61.63
74637;BME280;63141;54.616;39.754;2022-09-21T19:07:53;99986.25;;;20.36;61.44
74637;BME280;63141;54.616;39.754;2022-09-21T19:11:12;99990.63;;;20.37;60.95
74637;BME280;63141;54.616;39.754;2022-09-21T19:23:52;100011.81;;;20.37;60.72
74637;BME280;63141;54.616;39.754;2022-09-21T19:30:10;100007.38;;;20.38;60.77
74637;BME280;63141;54.616;39.754;2022-09-21T19:33:38;100009.09;;;20.39;60.71
74637;BME280;63141;54.616;39.754;2022-09-21T19:36:40;100008.22;;;20.38;60.39
74637;BME280;63141;54.616;39.754;2022-09-21T19:39:41;100013.47;;;20.40;60.46
74637;BME280;63141;54.616;39.754;2022-09-21T19:42:54;100009.97;;;20.39;60.57
74637;BME280;63141;54.616;39.754;2022-09-21T19:49:48;100009.91;;;20.41;59.71
74637;BME280;63141;54.616;39.754;2022-09-21T19:52:50;100009.03;;;20.40;59.89